createdAt,value
2018-07-12T00:01:30.993Z,89.99
2018-07-12T00:03:59.076Z,89.71
2018-07-12T00:06:26.944Z,90.28
2018-07-12T00:08:54.779Z,89.94
2018-07-12T00:11:23.730Z,89.79
2018-07-12T00:13:52.556Z,90.75
2018-07-12T00:16:20.400Z,90.49
2018-07-12T00:18:48.246Z,90.42
2018-07-12T00:21:16.144Z,90.22
2018-07-12T00:23:43.938Z,90.29
2018-07-12T00:26:12.603Z,90.10
2018-07-12T00:28:42.397Z,90.10
2018-07-12T00:31:10.901Z,89.71
2018-07-12T00:33:40.733Z,90.22
2018-07-12T00:36:09.401Z,90.21
2018-07-12T00:38:37.642Z,91.13
2018-07-12T00:41:05.512Z,90.40
2018-07-12T00:43:33.465Z,90.59
2018-07-12T00:46:01.557Z,90.29
2018-07-12T00:48:30.220Z,90.70
2018-07-12T00:50:59.997Z,90.26
2018-07-12T00:53:29.286Z,90.82
2018-07-12T00:55:57.337Z,91.20
2018-07-12T00:58:25.489Z,90.84
2018-07-12T01:00:54.171Z,91.49
2018-07-12T01:03:22.507Z,91.56
2018-07-12T01:05:51.795Z,91.60
2018-07-12T01:08:21.259Z,91.77
2018-07-12T01:10:49.597Z,91.82
2018-07-12T01:13:18.379Z,91.61
2018-07-12T01:15:46.540Z,91.25
2018-07-12T01:18:14.358Z,91.51
2018-07-12T01:20:43.443Z,90.59
2018-07-12T01:23:11.568Z,90.15
2018-07-12T01:25:39.454Z,90.47
2018-07-12T01:28:09.350Z,90.23
2018-07-12T01:30:37.967Z,90.17
2018-07-12T01:33:05.790Z,90.14
2018-07-12T01:35:33.645Z,90.07
2018-07-12T01:38:01.696Z,89.92
2018-07-12T01:40:29.554Z,89.99
2018-07-12T01:42:57.796Z,89.95
2018-07-12T01:45:25.639Z,89.73
2018-07-12T01:47:54.074Z,89.00
2018-07-12T01:50:23.027Z,89.06
2018-07-12T01:52:50.861Z,89.00
2018-07-12T01:55:19.104Z,89.14
2018-07-12T01:57:46.959Z,88.84
2018-07-12T02:00:15.019Z,89.20
2018-07-12T02:02:44.041Z,89.28
2018-07-12T02:05:14.617Z,89.19
2018-07-12T02:07:43.420Z,88.70
2018-07-12T02:10:12.073Z,89.22
2018-07-12T02:12:40.309Z,89.19
2018-07-12T02:15:08.145Z,89.24
2018-07-12T02:17:38.071Z,89.41
2018-07-12T02:20:05.912Z,89.91
2018-07-12T02:22:33.790Z,89.38
2018-07-12T02:25:02.172Z,89.40
2018-07-12T02:27:30.069Z,89.25
2018-07-12T02:29:58.008Z,88.96
2018-07-12T02:32:25.856Z,88.93
2018-07-12T02:34:55.160Z,89.39
2018-07-12T02:37:23.236Z,89.57
2018-07-12T02:39:51.089Z,89.01
2018-07-12T02:42:19.812Z,89.31
2018-07-12T02:44:47.737Z,88.25
2018-07-12T02:47:15.607Z,88.49
2018-07-12T02:49:43.495Z,88.71
2018-07-12T02:52:11.384Z,89.23
2018-07-12T02:54:39.930Z,88.96
2018-07-12T02:57:07.797Z,89.71
2018-07-12T02:59:35.662Z,89.94
2018-07-12T03:02:03.592Z,89.78
2018-07-12T03:04:31.784Z,89.39
2018-07-12T03:07:00.396Z,89.35
2018-07-12T03:09:28.520Z,89.13
2018-07-12T03:11:57.662Z,89.40
2018-07-12T03:14:25.767Z,89.41
2018-07-12T03:16:53.947Z,89.04
2018-07-12T03:19:22.223Z,89.67
2018-07-12T03:21:50.080Z,88.88
2018-07-12T03:24:18.369Z,89.25
2018-07-12T03:26:46.243Z,89.04
2018-07-12T03:29:15.289Z,88.93
2018-07-12T03:31:43.958Z,88.71
2018-07-12T03:34:11.813Z,89.23
2018-07-12T03:36:40.536Z,89.23
2018-07-12T03:39:08.825Z,89.74
2018-07-12T03:41:37.543Z,88.76
2018-07-12T03:44:05.395Z,88.60
2018-07-12T03:46:33.355Z,89.04
2018-07-12T03:49:02.995Z,88.67
2018-07-12T03:51:31.568Z,88.33
2018-07-12T03:53:59.387Z,88.25
2018-07-12T03:56:27.593Z,87.68
2018-07-12T03:58:55.993Z,87.80
2018-07-12T04:01:23.849Z,88.26
2018-07-12T04:03:52.481Z,87.77
2018-07-12T04:06:21.241Z,87.67
2018-07-12T04:08:49.592Z,88.07
2018-07-12T04:11:17.699Z,87.70
2018-07-12T04:13:45.576Z,87.46
2018-07-12T04:16:14.102Z,87.37
2018-07-12T04:18:43.160Z,87.55
2018-07-12T04:21:11.432Z,87.20
2018-07-12T04:23:40.216Z,86.59
2018-07-12T04:26:08.085Z,86.84
2018-07-12T04:28:36.537Z,86.30
2018-07-12T04:31:04.390Z,86.96
2018-07-12T04:33:32.665Z,87.29
2018-07-12T04:36:00.942Z,87.94
2018-07-12T04:38:29.093Z,87.87
2018-07-12T04:40:57.212Z,87.17
2018-07-12T04:43:26.192Z,86.95
2018-07-12T04:45:54.040Z,85.97
2018-07-12T04:48:22.884Z,86.15
2018-07-12T04:50:51.379Z,86.82
2018-07-12T04:53:19.233Z,86.97
2018-07-12T04:55:47.069Z,86.80
2018-07-12T04:58:15.666Z,86.72
2018-07-12T05:00:43.665Z,86.87
2018-07-12T05:03:12.472Z,87.13
2018-07-12T05:05:40.297Z,86.95
2018-07-12T05:08:10.704Z,87.33
2018-07-12T05:10:38.944Z,87.07
2018-07-12T05:13:06.802Z,87.30
2018-07-12T05:15:35.351Z,87.04
2018-07-12T05:18:04.057Z,87.27
2018-07-12T05:20:32.531Z,86.87
2018-07-12T05:23:00.399Z,86.48
2018-07-12T05:25:28.491Z,85.89
2018-07-12T05:27:57.292Z,85.56
2018-07-12T05:30:25.136Z,86.09
2018-07-12T05:32:53.772Z,85.56
2018-07-12T05:35:21.864Z,85.20
2018-07-12T05:37:51.556Z,85.66
2018-07-12T05:40:20.579Z,85.11
2018-07-12T05:42:50.195Z,84.58
2018-07-12T05:45:19.697Z,84.62
2018-07-12T05:47:49.925Z,84.46
2018-07-12T05:50:20.237Z,83.99
2018-07-12T05:52:49.814Z,83.67
2018-07-12T05:55:19.129Z,83.18
2018-07-12T05:57:49.508Z,82.15
2018-07-12T06:00:18.852Z,82.24
2018-07-12T06:02:48.850Z,81.87
2018-07-12T06:05:18.635Z,81.70
2018-07-12T06:07:47.944Z,81.59
2018-07-12T06:10:17.263Z,81.65
2018-07-12T06:12:47.017Z,80.90
2018-07-12T06:15:18.581Z,81.86
2018-07-12T06:17:49.380Z,81.42
2018-07-12T06:20:18.699Z,81.78
2018-07-12T06:22:48.852Z,81.83
2018-07-12T06:25:18.593Z,80.37
2018-07-12T06:27:47.933Z,80.80
2018-07-12T06:30:17.580Z,81.27
2018-07-12T06:32:46.928Z,80.53
2018-07-12T06:35:16.461Z,81.37
2018-07-12T06:37:45.780Z,81.75
2018-07-12T06:40:15.107Z,81.01
2018-07-12T06:42:44.430Z,81.48
2018-07-12T06:45:13.752Z,81.98
2018-07-12T06:47:43.488Z,81.56
2018-07-12T06:50:13.107Z,82.05
2018-07-12T06:52:42.558Z,80.82
2018-07-12T06:55:13.794Z,81.58
2018-07-12T06:57:43.357Z,80.70
2018-07-12T07:00:12.834Z,80.89
2018-07-12T07:02:42.548Z,81.97
2018-07-12T07:05:13.692Z,81.87
2018-07-12T07:07:43.789Z,81.74
2018-07-12T07:10:13.194Z,82.34
2018-07-12T07:12:42.557Z,81.64
2018-07-12T07:15:13.226Z,79.74
2018-07-12T07:17:42.547Z,80.17
2018-07-12T07:20:12.498Z,78.35
2018-07-12T07:22:42.667Z,77.99
2018-07-12T07:25:12.329Z,77.26
2018-07-12T07:27:41.900Z,76.88
2018-07-12T07:30:11.625Z,76.84
2018-07-12T07:32:42.133Z,77.32
2018-07-12T07:35:13.272Z,76.41
2018-07-12T07:37:43.096Z,75.49
2018-07-12T07:40:12.428Z,75.74
2018-07-12T07:42:42.258Z,76.03
2018-07-12T07:45:11.594Z,76.42
2018-07-12T07:47:40.940Z,75.52
2018-07-12T07:50:11.273Z,73.63
2018-07-12T07:52:41.047Z,73.65
2018-07-12T07:55:11.282Z,73.86
2018-07-12T07:57:40.628Z,74.08
2018-07-12T08:00:10.684Z,73.35
2018-07-12T08:02:40.362Z,74.75
2018-07-12T08:05:09.797Z,73.46
2018-07-12T08:07:39.153Z,72.65
2018-07-12T08:10:08.498Z,72.56
2018-07-12T08:12:37.840Z,71.71
2018-07-12T08:15:07.489Z,69.93
2018-07-12T08:17:37.221Z,70.58
2018-07-12T08:20:06.890Z,69.01
2018-07-12T08:22:36.727Z,69.99
2018-07-12T08:25:06.123Z,70.93
2018-07-12T08:27:35.450Z,69.44
2018-07-12T08:30:05.175Z,68.13
2018-07-12T08:32:35.276Z,67.99
2018-07-12T08:35:05.506Z,67.32
2018-07-12T08:37:35.844Z,67.58
2018-07-12T08:40:05.190Z,68.27
2018-07-12T08:42:34.879Z,68.30
2018-07-12T08:45:04.183Z,66.74
2018-07-12T08:47:34.120Z,67.20
2018-07-12T08:50:04.176Z,67.44
2018-07-12T08:52:34.424Z,64.05
2018-07-12T08:55:04.440Z,65.58
2018-07-12T08:57:34.196Z,64.61
2018-07-12T09:00:03.733Z,64.88
2018-07-12T09:02:33.089Z,64.51
2018-07-12T09:05:02.390Z,64.14
2018-07-12T09:07:32.356Z,64.12
2018-07-12T09:10:01.686Z,64.26
2018-07-12T09:12:31.951Z,62.66
2018-07-12T09:15:02.313Z,62.12
2018-07-12T09:17:32.733Z,62.60
2018-07-12T09:20:03.439Z,60.98
2018-07-12T09:22:33.904Z,60.37
2018-07-12T09:25:03.723Z,60.39
2018-07-12T09:27:33.317Z,60.66
2018-07-12T09:30:02.683Z,61.06
2018-07-12T09:32:32.222Z,60.07
2018-07-12T09:35:03.346Z,60.36
2018-07-12T09:37:32.639Z,60.18
2018-07-12T09:40:02.397Z,59.62
2018-07-12T09:42:31.719Z,58.99
2018-07-12T09:45:02.474Z,59.88
2018-07-12T09:47:32.883Z,59.41
2018-07-12T09:50:02.564Z,58.63
2018-07-12T09:52:34.410Z,60.61
2018-07-12T09:55:05.305Z,60.50
2018-07-12T09:57:45.817Z,58.55
2018-07-12T10:00:16.463Z,60.00
2018-07-12T10:02:50.894Z,58.64
2018-07-12T10:05:26.374Z,58.06
2018-07-12T10:08:06.562Z,55.55
2018-07-12T10:10:40.063Z,55.83
2018-07-12T10:13:15.145Z,54.82
2018-07-12T10:15:52.592Z,50.51
2018-07-12T10:18:24.011Z,50.99
2018-07-12T10:20:53.356Z,53.15
2018-07-12T10:23:23.524Z,53.38
2018-07-12T10:25:53.403Z,53.21
2018-07-12T10:28:23.999Z,52.04
2018-07-12T10:30:53.550Z,53.38
2018-07-12T10:33:22.946Z,53.75
2018-07-12T10:35:53.604Z,52.52
2018-07-12T10:38:23.884Z,54.00
2018-07-12T10:40:53.247Z,52.71
2018-07-12T10:43:23.349Z,52.63
2018-07-12T10:45:52.799Z,51.96
2018-07-12T10:48:22.232Z,52.42
2018-07-12T10:50:52.111Z,51.92
2018-07-12T10:53:22.155Z,50.57
2018-07-12T10:55:52.340Z,50.18
2018-07-12T10:58:22.362Z,51.89
2018-07-12T11:00:51.936Z,51.32
2018-07-12T11:03:21.276Z,52.16
2018-07-12T11:05:50.627Z,50.46
2018-07-12T11:08:20.409Z,47.95
2018-07-12T11:10:49.948Z,48.37
2018-07-12T11:13:29.319Z,47.65
2018-07-12T11:15:59.068Z,47.97
2018-07-12T11:18:29.290Z,47.80
2018-07-12T11:20:59.304Z,48.15
2018-07-12T11:23:28.925Z,47.42
2018-07-12T11:25:58.749Z,47.01
2018-07-12T11:28:28.914Z,47.52
2018-07-12T11:30:58.255Z,47.18
2018-07-12T11:33:37.939Z,48.18
2018-07-12T11:36:08.890Z,49.43
2018-07-12T11:38:39.708Z,49.13
2018-07-12T11:41:10.347Z,48.05
2018-07-12T11:43:39.631Z,49.47
2018-07-12T11:46:11.371Z,50.90
2018-07-12T11:48:42.653Z,51.06
2018-07-12T11:51:13.689Z,49.63
2018-07-12T11:53:43.075Z,47.99
2018-07-12T11:56:12.414Z,47.44
2018-07-12T11:58:42.710Z,44.43
2018-07-12T12:01:12.067Z,44.74
2018-07-12T12:03:41.820Z,43.86
2018-07-12T12:06:11.465Z,44.78
2018-07-12T12:08:40.900Z,45.03
2018-07-12T12:11:10.205Z,44.78
2018-07-12T12:13:39.749Z,45.46
2018-07-12T12:16:10.359Z,45.06
2018-07-12T12:18:40.972Z,43.66
2018-07-12T12:21:10.668Z,42.92
2018-07-12T12:23:40.339Z,41.32
2018-07-12T12:26:10.524Z,40.48
2018-07-12T12:28:40.274Z,41.40
2018-07-12T12:31:10.422Z,41.95
2018-07-12T12:33:40.610Z,39.39
2018-07-12T12:36:09.938Z,41.51
2018-07-12T12:38:39.264Z,42.49
2018-07-12T12:41:09.822Z,44.02
2018-07-12T12:43:39.952Z,42.69
2018-07-12T12:46:09.299Z,41.17
2018-07-12T12:48:39.445Z,40.57
2018-07-12T12:51:08.839Z,39.81
2018-07-12T12:53:38.652Z,38.78
2018-07-12T12:56:08.506Z,38.32
2018-07-12T12:58:37.819Z,37.19
2018-07-12T13:01:07.396Z,38.41
2018-07-12T13:03:36.712Z,36.72
2018-07-12T13:06:06.768Z,37.95
2018-07-12T13:08:36.441Z,37.34
2018-07-12T13:11:05.828Z,39.83
2018-07-12T13:13:35.538Z,37.36
2018-07-12T13:16:06.439Z,37.42
2018-07-12T13:18:36.030Z,35.35
2018-07-12T13:21:07.281Z,36.14
2018-07-12T13:23:36.614Z,37.08
2018-07-12T13:26:06.950Z,36.38
2018-07-12T13:28:36.344Z,36.60
2018-07-12T13:31:05.726Z,35.78
2018-07-12T13:33:35.497Z,36.23
2018-07-12T13:36:05.349Z,36.76
2018-07-12T13:38:35.744Z,36.08
2018-07-12T13:41:05.433Z,34.48
2018-07-12T13:43:34.883Z,34.38
2018-07-12T13:46:04.267Z,35.30
2018-07-12T13:48:35.615Z,35.92
2018-07-12T13:51:05.700Z,35.82
2018-07-12T13:53:35.024Z,36.04
2018-07-12T13:56:04.347Z,37.27
2018-07-12T13:58:34.011Z,36.55
2018-07-12T14:01:03.360Z,36.75
2018-07-12T14:03:33.161Z,34.87
2018-07-12T14:06:02.987Z,35.94
2018-07-12T14:08:32.428Z,37.60
2018-07-12T14:11:02.183Z,35.86
2018-07-12T14:13:31.493Z,36.81
2018-07-12T14:16:01.549Z,35.03
2018-07-12T14:18:33.486Z,35.00
2018-07-12T14:21:03.080Z,34.84
2018-07-12T14:23:32.869Z,35.73
2018-07-12T14:26:03.100Z,35.87
2018-07-12T14:28:32.887Z,37.13
2018-07-12T14:31:02.680Z,36.36
2018-07-12T14:33:33.134Z,36.44
2018-07-12T14:36:03.612Z,36.31
2018-07-12T14:38:33.944Z,35.36
2018-07-12T14:41:04.131Z,34.65
2018-07-12T14:43:34.313Z,34.41
2018-07-12T14:46:03.949Z,37.41
2018-07-12T14:48:33.708Z,35.84
2018-07-12T14:51:03.074Z,36.05
2018-07-12T14:53:32.720Z,36.66
2018-07-12T14:56:06.964Z,35.61
2018-07-12T14:58:36.300Z,34.62
2018-07-12T15:01:05.971Z,35.71
2018-07-12T15:03:35.324Z,35.20
2018-07-12T15:06:05.971Z,34.47
2018-07-12T15:08:36.274Z,34.29
2018-07-12T15:11:05.631Z,33.63
2018-07-12T15:13:34.991Z,32.33
2018-07-12T15:16:05.307Z,33.17
2018-07-12T15:18:35.143Z,31.36
2018-07-12T15:21:04.967Z,33.22
2018-07-12T15:23:37.735Z,34.10
2018-07-12T15:26:07.512Z,35.00
2018-07-12T15:28:37.136Z,35.02
2018-07-12T15:31:06.843Z,36.71
2018-07-12T15:33:36.946Z,36.17
2018-07-12T15:36:07.162Z,35.75
2018-07-12T15:38:36.842Z,36.71
2018-07-12T15:41:06.341Z,35.77
2018-07-12T15:43:35.690Z,36.13
2018-07-12T15:46:05.076Z,35.96
2018-07-12T15:48:34.561Z,35.67
2018-07-12T15:51:04.380Z,36.38
2018-07-12T15:53:34.078Z,36.24
2018-07-12T15:56:03.798Z,35.57
2018-07-12T15:58:35.292Z,35.98
2018-07-12T16:01:05.126Z,34.86
2018-07-12T16:03:36.300Z,34.19
2018-07-12T16:06:05.620Z,33.42
2018-07-12T16:08:35.102Z,33.06
2018-07-12T16:11:04.803Z,33.39
2018-07-12T16:13:34.519Z,33.01
2018-07-12T16:16:03.909Z,32.10
2018-07-12T16:18:33.536Z,32.76
2018-07-12T16:21:03.785Z,33.94
2018-07-12T16:23:33.131Z,32.96
2018-07-12T16:26:02.844Z,33.65
2018-07-12T16:28:33.089Z,34.30
2018-07-12T16:31:03.008Z,35.10
2018-07-12T16:33:32.562Z,34.63
2018-07-12T16:36:03.236Z,35.04
2018-07-12T16:38:33.365Z,36.46
2018-07-12T16:41:02.744Z,36.99
2018-07-12T16:43:32.640Z,35.85
2018-07-12T16:46:03.723Z,35.03
2018-07-12T16:48:33.123Z,35.11
2018-07-12T16:51:03.646Z,35.44
2018-07-12T16:53:35.325Z,34.31
2018-07-12T16:56:05.761Z,34.86
2018-07-12T16:58:35.861Z,35.85
2018-07-12T17:01:05.198Z,36.49
2018-07-12T17:03:34.771Z,37.71
2018-07-12T17:06:05.153Z,36.79
2018-07-12T17:08:34.738Z,37.10
2018-07-12T17:11:05.069Z,37.23
2018-07-12T17:13:35.439Z,38.41
2018-07-12T17:16:05.339Z,41.08
2018-07-12T17:18:34.691Z,47.83
2018-07-12T17:21:05.195Z,52.71
2018-07-12T17:23:34.555Z,59.64
2018-07-12T17:26:04.298Z,65.19
2018-07-12T17:28:33.638Z,61.92
2018-07-12T17:31:03.510Z,64.11
2018-07-12T17:33:34.624Z,66.66
2018-07-12T17:36:04.292Z,70.21
2018-07-12T17:38:34.435Z,72.54
2018-07-12T17:41:04.049Z,73.58
2018-07-12T17:43:33.366Z,74.42
2018-07-12T17:46:03.849Z,74.49
2018-07-12T17:48:33.924Z,75.51
2018-07-12T17:51:04.312Z,78.59
2018-07-12T17:53:34.594Z,76.13
2018-07-12T17:56:03.924Z,75.96
2018-07-12T17:58:33.710Z,76.14
2018-07-12T18:01:03.801Z,75.30
2018-07-12T18:03:33.208Z,75.29
2018-07-12T18:06:03.329Z,76.91
2018-07-12T18:08:32.658Z,74.99
2018-07-12T18:11:02.762Z,74.89
2018-07-12T18:13:32.473Z,75.08
2018-07-12T18:16:01.777Z,74.31
2018-07-12T18:18:31.494Z,76.10
2018-07-12T18:21:01.077Z,76.86
2018-07-12T18:23:30.825Z,82.20
2018-07-12T18:26:00.157Z,80.33
2018-07-12T18:28:29.971Z,79.69
2018-07-12T18:31:00.310Z,77.48
2018-07-12T18:33:29.861Z,76.00
2018-07-12T18:35:59.396Z,75.69
2018-07-12T18:38:30.504Z,75.04
2018-07-12T18:41:00.051Z,75.55
2018-07-12T18:43:29.428Z,76.29
2018-07-12T18:45:59.367Z,73.73
2018-07-12T18:48:28.723Z,73.30
2018-07-12T18:50:58.849Z,73.08
2018-07-12T18:53:28.203Z,73.94
2018-07-12T18:55:58.647Z,75.35
2018-07-12T18:58:31.160Z,75.15
2018-07-12T19:01:02.903Z,75.02
2018-07-12T19:03:33.500Z,76.85
2018-07-12T19:06:02.815Z,76.30
2018-07-12T19:08:33.421Z,76.09
2018-07-12T19:11:03.552Z,80.66
2018-07-12T19:13:33.245Z,80.48
2018-07-12T19:16:02.666Z,79.78
2018-07-12T19:18:32.285Z,78.98
2018-07-12T19:21:02.528Z,78.98
2018-07-12T19:23:33.175Z,77.73
2018-07-12T19:26:03.377Z,78.21
2018-07-12T19:28:33.617Z,78.52
2018-07-12T19:31:03.772Z,78.03
2018-07-12T19:33:33.181Z,79.12
2018-07-12T19:36:02.956Z,78.64
2018-07-12T19:38:33.040Z,79.28
2018-07-12T19:41:02.388Z,79.03
2018-07-12T19:43:32.263Z,79.21
2018-07-12T19:46:02.063Z,78.63
2018-07-12T19:48:32.063Z,79.82
2018-07-12T19:51:02.921Z,79.76
2018-07-12T19:53:33.236Z,79.50
2018-07-12T19:56:02.564Z,79.43
2018-07-12T19:58:33.609Z,80.06
2018-07-12T20:01:04.257Z,80.81
2018-07-12T20:03:33.934Z,79.72
2018-07-12T20:06:04.696Z,80.23
2018-07-12T20:08:34.064Z,80.22
2018-07-12T20:11:04.330Z,79.46
2018-07-12T20:13:34.717Z,80.84
2018-07-12T20:16:04.339Z,81.24
2018-07-12T20:18:33.721Z,80.66
2018-07-12T20:21:04.678Z,80.57
2018-07-12T20:23:35.884Z,80.12
2018-07-12T20:26:06.127Z,80.86
2018-07-12T20:28:35.457Z,80.92
2018-07-12T20:31:05.215Z,81.42
2018-07-12T20:33:34.994Z,81.52
2018-07-12T20:36:04.365Z,81.71
2018-07-12T20:38:33.734Z,81.59
2018-07-12T20:41:04.061Z,81.35
2018-07-12T20:43:38.021Z,81.21
2018-07-12T20:46:07.342Z,81.08
2018-07-12T20:48:36.673Z,81.31
2018-07-12T20:51:06.600Z,81.57
2018-07-12T20:53:37.220Z,81.57
2018-07-12T20:56:09.047Z,81.40
2018-07-12T20:58:39.024Z,82.23
2018-07-12T21:01:08.323Z,81.57
2018-07-12T21:03:38.344Z,81.80
2018-07-12T21:06:09.032Z,81.40
2018-07-12T21:08:39.416Z,81.45
2018-07-12T21:11:09.643Z,81.92
2018-07-12T21:13:40.195Z,81.63
2018-07-12T21:16:09.544Z,81.73
2018-07-12T21:18:39.253Z,81.37
2018-07-12T21:21:10.037Z,80.68
2018-07-12T21:23:39.826Z,81.44
2018-07-12T21:26:09.556Z,81.95
2018-07-12T21:28:39.147Z,82.63
2018-07-12T21:31:08.890Z,82.07
2018-07-12T21:33:39.026Z,82.74
2018-07-12T21:36:08.972Z,82.80
2018-07-12T21:38:39.013Z,82.71
2018-07-12T21:41:08.906Z,82.96
2018-07-12T21:43:39.838Z,83.04
2018-07-12T21:46:11.063Z,83.38
2018-07-12T21:48:40.381Z,83.23
2018-07-12T21:51:10.528Z,83.16
2018-07-12T21:53:40.757Z,82.48
2018-07-12T21:56:10.090Z,82.73
2018-07-12T21:58:39.480Z,82.97
2018-07-12T22:01:08.823Z,82.66
2018-07-12T22:03:38.132Z,82.52
2018-07-12T22:06:08.052Z,82.30
2018-07-12T22:08:37.822Z,82.90
2018-07-12T22:11:07.506Z,83.15
2018-07-12T22:13:38.036Z,82.73
2018-07-12T22:16:08.271Z,82.94
2018-07-12T22:18:39.225Z,82.82
2018-07-12T22:21:09.384Z,83.20
2018-07-12T22:23:38.828Z,83.39
2018-07-12T22:26:08.893Z,83.18
2018-07-12T22:28:38.546Z,83.28
2018-07-12T22:31:08.853Z,82.60
2018-07-12T22:33:39.305Z,83.14
2018-07-12T22:36:08.629Z,82.43
2018-07-12T22:38:38.843Z,83.36
2018-07-12T22:41:08.188Z,83.59
2018-07-12T22:43:37.534Z,84.00
2018-07-12T22:46:07.110Z,83.42
2018-07-12T22:48:36.880Z,82.82
2018-07-12T22:51:08.005Z,83.75
2018-07-12T22:53:37.320Z,85.60
2018-07-12T22:56:06.736Z,86.33
2018-07-12T22:58:38.005Z,86.30
2018-07-12T23:01:07.335Z,87.61
2018-07-12T23:03:37.004Z,88.32
2018-07-12T23:06:06.870Z,88.06
2018-07-12T23:08:36.182Z,88.63
2018-07-12T23:11:05.675Z,89.34
2018-07-12T23:13:36.030Z,88.46
2018-07-12T23:16:06.618Z,88.80
2018-07-12T23:18:37.726Z,89.26
2018-07-12T23:21:08.913Z,87.93
2018-07-12T23:23:39.425Z,87.63
2018-07-12T23:26:10.234Z,86.82
2018-07-12T23:28:44.891Z,87.22
2018-07-12T23:31:14.625Z,87.07
2018-07-12T23:33:45.532Z,87.62
2018-07-12T23:36:15.171Z,87.13
2018-07-12T23:38:44.548Z,87.62
2018-07-12T23:41:15.568Z,88.06
2018-07-12T23:43:45.998Z,88.32
2018-07-12T23:46:15.334Z,87.61
2018-07-12T23:48:45.706Z,87.88
2018-07-12T23:51:15.414Z,88.50
2018-07-12T23:53:44.958Z,88.21
2018-07-12T23:56:15.183Z,88.77
2018-07-12T23:58:44.827Z,88.37
